createdAt,value
2022-11-16T00:01:34.188Z,6.50
2022-11-16T00:04:03.328Z,6.40
2022-11-16T00:06:30.526Z,6.40
2022-11-16T00:09:20.577Z,6.50
2022-11-16T00:11:49.917Z,6.50
2022-11-16T00:14:17.152Z,6.50
2022-11-16T00:16:44.027Z,6.50
2022-11-16T00:19:11.605Z,6.50
2022-11-16T00:21:38.626Z,6.40
2022-11-16T00:24:06.259Z,6.40
2022-11-16T00:26:33.214Z,6.40
2022-11-16T00:29:00.077Z,6.40
2022-11-16T00:31:26.991Z,6.40
2022-11-16T00:33:53.834Z,6.40
2022-11-16T00:36:20.695Z,6.40
2022-11-16T00:38:47.948Z,6.40
2022-11-16T00:41:14.832Z,6.40
2022-11-16T00:43:41.852Z,6.40
2022-11-16T00:46:09.303Z,6.40
2022-11-16T00:48:36.341Z,6.40
2022-11-16T00:51:03.520Z,6.40
2022-11-16T00:53:30.505Z,6.40
2022-11-16T00:55:57.392Z,6.40
2022-11-16T00:58:24.569Z,6.40
2022-11-16T01:01:04.706Z,6.40
2022-11-16T01:03:31.740Z,6.40
2022-11-16T01:06:03.856Z,6.40
2022-11-16T01:08:31.262Z,6.30
2022-11-16T01:11:20.135Z,6.40
2022-11-16T01:13:48.083Z,6.40
2022-11-16T01:16:19.631Z,6.40
2022-11-16T01:18:51.935Z,6.40
2022-11-16T01:21:19.648Z,6.40
2022-11-16T01:23:46.843Z,6.30
2022-11-16T01:26:14.092Z,6.30
2022-11-16T01:28:42.494Z,6.30
2022-11-16T01:31:11.060Z,6.40
2022-11-16T01:33:38.433Z,6.30
2022-11-16T01:36:17.095Z,6.40
2022-11-16T01:38:45.990Z,6.40
2022-11-16T01:41:15.660Z,6.30
2022-11-16T01:43:56.475Z,6.30
2022-11-16T01:46:28.803Z,6.30
2022-11-16T01:49:04.681Z,6.30
2022-11-16T01:51:32.667Z,6.30
2022-11-16T01:54:02.713Z,6.30
2022-11-16T01:56:32.495Z,6.30
2022-11-16T01:59:09.552Z,6.30
2022-11-16T02:01:36.547Z,6.30
2022-11-16T02:04:05.011Z,6.30
2022-11-16T02:07:06.544Z,6.30
2022-11-16T02:10:04.154Z,6.30
2022-11-16T02:12:49.027Z,6.30
2022-11-16T02:15:46.491Z,6.30
2022-11-16T02:18:21.371Z,6.30
2022-11-16T02:20:58.175Z,6.30
2022-11-16T02:23:57.229Z,6.30
2022-11-16T02:26:32.847Z,6.30
2022-11-16T02:29:14.874Z,6.30
2022-11-16T02:31:52.061Z,6.30
2022-11-16T02:34:21.210Z,6.20
2022-11-16T02:36:52.719Z,6.20
2022-11-16T02:39:23.178Z,6.20
2022-11-16T02:41:52.657Z,6.20
2022-11-16T02:44:24.562Z,6.20
2022-11-16T02:46:57.402Z,6.20
2022-11-16T02:49:26.476Z,6.20
2022-11-16T02:51:54.409Z,6.20
2022-11-16T02:54:24.556Z,6.10
2022-11-16T02:57:02.664Z,6.10
2022-11-16T02:59:33.617Z,6.10
2022-11-16T03:02:25.499Z,6.10
2022-11-16T03:05:08.495Z,6.10
2022-11-16T03:07:55.241Z,6.20
2022-11-16T03:10:41.863Z,6.20
2022-11-16T03:13:10.687Z,6.20
2022-11-16T03:15:40.240Z,6.10
2022-11-16T03:18:09.835Z,6.10
2022-11-16T03:20:38.997Z,6.10
2022-11-16T03:23:10.138Z,6.10
2022-11-16T03:25:50.649Z,6.10
2022-11-16T03:28:30.874Z,6.10
2022-11-16T03:31:12.536Z,6.10
2022-11-16T03:33:49.835Z,6.10
2022-11-16T03:36:35.033Z,6.10
2022-11-16T03:39:10.353Z,6.10
2022-11-16T03:41:41.944Z,6.10
2022-11-16T03:44:11.850Z,6.10
2022-11-16T03:46:41.699Z,6.10
2022-11-16T03:49:09.351Z,6.10
2022-11-16T03:51:38.292Z,6.10
2022-11-16T03:54:05.762Z,6.00
2022-11-16T03:56:34.084Z,6.00
2022-11-16T03:59:02.019Z,6.00
2022-11-16T04:01:30.400Z,6.10
2022-11-16T04:03:57.316Z,6.00
2022-11-16T04:06:43.113Z,6.00
2022-11-16T04:09:29.332Z,6.10
2022-11-16T04:12:15.001Z,6.10
2022-11-16T04:15:01.812Z,6.10
2022-11-16T04:17:49.650Z,6.10
2022-11-16T04:20:35.098Z,6.10
2022-11-16T04:23:47.344Z,6.00
2022-11-16T04:26:14.475Z,6.00
2022-11-16T04:28:41.892Z,6.00
2022-11-16T04:31:27.517Z,6.00
2022-11-16T04:34:23.746Z,6.00
2022-11-16T04:37:12.127Z,6.00
2022-11-16T04:39:40.460Z,6.00
2022-11-16T04:42:20.007Z,6.00
2022-11-16T04:45:08.633Z,6.10
2022-11-16T04:47:44.123Z,6.10
2022-11-16T04:50:12.522Z,6.10
2022-11-16T04:52:40.669Z,6.10
2022-11-16T04:55:11.237Z,6.10
2022-11-16T04:57:38.896Z,6.10
2022-11-16T05:00:07.143Z,6.10
2022-11-16T05:02:36.002Z,6.10
2022-11-16T05:05:02.949Z,6.00
2022-11-16T05:07:30.385Z,6.00
2022-11-16T05:10:11.075Z,6.00
2022-11-16T05:12:38.719Z,6.00
2022-11-16T05:15:08.850Z,6.00
2022-11-16T05:17:36.255Z,6.00
2022-11-16T05:20:25.448Z,6.00
2022-11-16T05:22:59.546Z,6.00
2022-11-16T05:25:36.262Z,6.00
2022-11-16T05:28:06.004Z,6.00
2022-11-16T05:30:36.523Z,6.00
2022-11-16T05:33:04.043Z,6.10
2022-11-16T05:35:34.042Z,6.00
2022-11-16T05:38:01.907Z,6.00
2022-11-16T05:40:30.152Z,6.00
2022-11-16T05:42:58.775Z,6.00
2022-11-16T05:45:28.402Z,6.00
2022-11-16T05:47:56.404Z,6.00
2022-11-16T05:50:23.312Z,6.00
2022-11-16T05:53:03.212Z,6.00
2022-11-16T05:55:30.184Z,6.00
2022-11-16T05:57:57.045Z,6.00
2022-11-16T06:00:24.253Z,6.00
2022-11-16T06:02:53.229Z,6.00
2022-11-16T06:05:25.906Z,6.00
2022-11-16T06:07:54.346Z,6.00
2022-11-16T06:10:21.818Z,6.00
2022-11-16T06:12:50.702Z,6.00
2022-11-16T06:15:18.608Z,6.00
2022-11-16T06:17:45.826Z,6.00
2022-11-16T06:20:12.979Z,6.00
2022-11-16T06:22:40.712Z,6.00
2022-11-16T06:25:08.266Z,6.00
2022-11-16T06:27:40.522Z,5.90
2022-11-16T06:30:09.133Z,5.90
2022-11-16T06:32:36.216Z,6.00
2022-11-16T06:35:04.821Z,6.00
2022-11-16T06:37:32.703Z,6.00
2022-11-16T06:39:59.556Z,5.90
2022-11-16T06:42:27.891Z,6.00
2022-11-16T06:44:55.448Z,6.00
2022-11-16T06:47:27.816Z,6.00
2022-11-16T06:49:55.148Z,6.00
2022-11-16T06:52:23.441Z,6.00
2022-11-16T06:54:50.769Z,6.00
2022-11-16T06:57:18.070Z,5.90
2022-11-16T06:59:45.279Z,6.00
2022-11-16T07:02:12.949Z,5.90
2022-11-16T07:04:40.936Z,5.90
2022-11-16T07:07:07.895Z,5.90
2022-11-16T07:09:36.596Z,5.90
2022-11-16T07:12:04.599Z,5.90
2022-11-16T07:14:36.530Z,5.90
2022-11-16T07:17:09.275Z,5.90
2022-11-16T07:19:37.172Z,5.90
2022-11-16T07:22:05.122Z,5.90
2022-11-16T07:24:33.041Z,5.90
2022-11-16T07:27:00.126Z,5.90
2022-11-16T07:29:31.495Z,5.90
2022-11-16T07:32:24.475Z,5.90
2022-11-16T07:35:04.763Z,5.90
2022-11-16T07:37:31.884Z,5.90
2022-11-16T07:39:58.851Z,5.90
2022-11-16T07:42:25.771Z,5.90
2022-11-16T07:45:28.216Z,5.90
2022-11-16T07:47:59.095Z,6.00
2022-11-16T07:50:49.030Z,6.00
2022-11-16T07:53:17.128Z,6.00
2022-11-16T07:55:44.156Z,6.00
2022-11-16T07:58:11.123Z,6.00
2022-11-16T08:00:38.718Z,6.00
2022-11-16T08:03:13.847Z,6.00
2022-11-16T08:05:41.583Z,6.00
2022-11-16T08:08:08.516Z,6.00
2022-11-16T08:10:37.538Z,6.00
2022-11-16T08:13:04.530Z,6.10
2022-11-16T08:15:31.386Z,6.10
2022-11-16T08:18:01.287Z,6.10
2022-11-16T08:20:28.921Z,6.10
2022-11-16T08:23:00.313Z,6.10
2022-11-16T08:25:28.157Z,6.10
2022-11-16T08:27:54.957Z,6.10
2022-11-16T08:30:23.347Z,6.10
2022-11-16T08:32:50.221Z,6.20
2022-11-16T08:35:17.568Z,6.20
2022-11-16T08:37:45.312Z,6.20
2022-11-16T08:40:12.583Z,6.20
2022-11-16T08:42:43.653Z,6.20
2022-11-16T08:45:11.561Z,6.20
2022-11-16T08:47:38.511Z,6.20
2022-11-16T08:50:07.418Z,6.20
2022-11-16T08:52:34.249Z,6.20
2022-11-16T08:55:02.500Z,6.30
2022-11-16T08:57:30.197Z,6.30
2022-11-16T08:59:59.669Z,6.30
2022-11-16T09:02:26.572Z,6.30
2022-11-16T09:04:54.618Z,6.30
2022-11-16T09:07:21.742Z,6.30
2022-11-16T09:09:49.012Z,6.30
2022-11-16T09:12:16.209Z,6.30
2022-11-16T09:14:43.101Z,6.30
2022-11-16T09:17:10.026Z,6.40
2022-11-16T09:19:36.915Z,6.40
2022-11-16T09:22:03.990Z,6.40
2022-11-16T09:24:31.428Z,6.30
2022-11-16T09:27:01.385Z,6.40
2022-11-16T09:29:28.351Z,6.40
2022-11-16T09:31:55.741Z,6.40
2022-11-16T09:34:22.720Z,6.40
2022-11-16T09:36:49.541Z,6.40
2022-11-16T09:39:30.652Z,6.40
2022-11-16T09:42:16.619Z,6.40
2022-11-16T09:45:18.864Z,6.40
2022-11-16T09:47:59.370Z,6.40
2022-11-16T09:50:29.112Z,6.40
2022-11-16T09:53:00.120Z,6.40
2022-11-16T09:55:51.915Z,6.40
2022-11-16T09:58:25.234Z,6.40
2022-11-16T10:00:59.922Z,6.40
2022-11-16T10:03:32.247Z,6.40
2022-11-16T10:06:06.387Z,6.40
2022-11-16T10:08:41.478Z,6.40
2022-11-16T10:11:29.718Z,6.40
2022-11-16T10:14:05.304Z,6.40
2022-11-16T10:16:45.581Z,6.40
2022-11-16T10:19:24.399Z,6.40
2022-11-16T10:22:15.813Z,6.30
2022-11-16T10:24:56.690Z,6.30
2022-11-16T10:27:34.962Z,6.30
2022-11-16T10:30:21.220Z,6.30
2022-11-16T10:32:53.701Z,6.40
2022-11-16T10:35:42.429Z,6.40
2022-11-16T10:38:25.580Z,6.40
2022-11-16T10:41:14.652Z,6.40
2022-11-16T10:43:43.233Z,6.40
2022-11-16T10:46:17.464Z,6.40
2022-11-16T10:49:22.567Z,6.40
2022-11-16T10:51:49.504Z,6.40
2022-11-16T10:54:18.146Z,6.40
2022-11-16T10:56:49.723Z,6.40
2022-11-16T10:59:19.431Z,6.40
2022-11-16T11:01:51.356Z,6.40
2022-11-16T11:04:26.832Z,6.40
2022-11-16T11:06:56.252Z,6.40
2022-11-16T11:09:34.974Z,6.40
2022-11-16T11:12:30.574Z,6.40
2022-11-16T11:15:26.533Z,6.40
2022-11-16T11:18:15.578Z,6.50
2022-11-16T11:20:46.650Z,6.40
2022-11-16T11:23:23.682Z,6.40
2022-11-16T11:26:00.656Z,6.40
2022-11-16T11:28:32.118Z,6.40
2022-11-16T11:31:25.939Z,6.40
2022-11-16T11:33:59.560Z,6.40
2022-11-16T11:36:39.440Z,6.40
2022-11-16T11:39:26.323Z,6.40
2022-11-16T11:42:12.959Z,6.40
2022-11-16T11:44:57.088Z,6.40
2022-11-16T11:47:59.576Z,6.40
2022-11-16T11:50:41.886Z,6.40
2022-11-16T11:53:27.406Z,6.40
2022-11-16T11:55:59.251Z,6.40
2022-11-16T11:58:38.708Z,6.40
2022-11-16T12:01:35.688Z,6.40
2022-11-16T12:04:21.255Z,6.40
2022-11-16T12:06:54.292Z,6.40
2022-11-16T12:09:40.830Z,6.40
2022-11-16T12:12:16.702Z,6.40
2022-11-16T12:15:07.618Z,6.40
2022-11-16T12:18:02.335Z,6.40
2022-11-16T12:20:44.157Z,6.40
2022-11-16T12:23:36.363Z,6.30
2022-11-16T12:26:21.043Z,6.30
2022-11-16T12:29:10.399Z,6.30
2022-11-16T12:31:39.957Z,6.20
2022-11-16T12:34:28.177Z,6.20
2022-11-16T12:37:01.352Z,6.20
2022-11-16T12:39:39.789Z,6.20
2022-11-16T12:42:09.747Z,6.20
2022-11-16T12:44:56.031Z,6.20
2022-11-16T12:47:35.011Z,6.20
2022-11-16T12:50:13.576Z,6.20
2022-11-16T12:52:54.091Z,6.20
2022-11-16T12:55:26.942Z,6.20
2022-11-16T12:58:12.492Z,6.20
2022-11-16T13:01:19.071Z,6.10
2022-11-16T13:03:54.182Z,6.10
2022-11-16T13:06:30.604Z,6.00
2022-11-16T13:09:06.720Z,6.00
2022-11-16T13:11:41.930Z,6.10
2022-11-16T13:14:36.159Z,6.00
2022-11-16T13:17:04.848Z,6.00
2022-11-16T13:19:32.844Z,6.00
2022-11-16T13:22:07.566Z,6.00
2022-11-16T13:25:12.036Z,6.00
2022-11-16T13:27:49.481Z,6.00
2022-11-16T13:30:25.464Z,6.00
2022-11-16T13:33:17.482Z,6.00
2022-11-16T13:35:44.418Z,6.00
2022-11-16T13:38:13.450Z,6.00
2022-11-16T13:40:41.025Z,6.00
2022-11-16T13:43:10.803Z,6.00
2022-11-16T13:45:49.670Z,5.90
2022-11-16T13:48:37.108Z,5.80
2022-11-16T13:51:07.603Z,5.80
2022-11-16T13:56:29.369Z,5.60
2022-11-16T13:58:57.679Z,5.60
2022-11-16T14:01:24.733Z,5.60
2022-11-16T14:04:12.354Z,5.60
2022-11-16T14:06:45.134Z,5.60
2022-11-16T14:09:41.602Z,5.60
2022-11-16T14:12:39.004Z,5.60
2022-11-16T14:15:16.761Z,5.60
2022-11-16T14:17:59.646Z,5.50
2022-11-16T14:20:56.014Z,5.50
2022-11-16T14:23:38.893Z,5.50
2022-11-16T14:26:10.578Z,5.50
2022-11-16T14:29:07.401Z,5.40
2022-11-16T14:31:49.033Z,5.40
2022-11-16T14:34:19.251Z,5.40
2022-11-16T14:36:47.892Z,5.40
2022-11-16T14:39:16.024Z,5.40
2022-11-16T14:41:45.761Z,5.40
2022-11-16T14:44:17.504Z,5.40
2022-11-16T14:46:45.741Z,5.40
2022-11-16T14:49:16.386Z,5.40
2022-11-16T14:51:47.530Z,5.40
2022-11-16T14:54:47.011Z,5.40
2022-11-16T14:57:23.293Z,5.40
2022-11-16T15:00:06.336Z,5.40
2022-11-16T15:02:34.313Z,5.40
2022-11-16T15:05:01.802Z,5.40
2022-11-16T15:07:30.002Z,5.30
2022-11-16T15:10:02.071Z,5.40
2022-11-16T15:12:42.118Z,5.40
2022-11-16T15:15:11.730Z,5.40
2022-11-16T15:17:40.594Z,5.30
2022-11-16T15:20:31.952Z,5.30
2022-11-16T15:23:01.038Z,5.30
2022-11-16T15:25:29.772Z,5.20
2022-11-16T15:27:59.311Z,5.20
2022-11-16T15:30:29.438Z,5.20
2022-11-16T15:32:57.153Z,5.10
2022-11-16T15:35:32.129Z,5.10
2022-11-16T15:38:24.854Z,5.20
2022-11-16T15:41:00.285Z,5.20
2022-11-16T15:43:45.242Z,5.20
2022-11-16T15:46:24.970Z,5.20
2022-11-16T15:48:52.940Z,5.10
2022-11-16T15:51:24.685Z,5.10
2022-11-16T15:54:11.542Z,5.10
2022-11-16T15:56:38.561Z,5.10
2022-11-16T15:59:25.522Z,5.10
2022-11-16T16:01:52.603Z,5.10
2022-11-16T16:04:19.605Z,5.10
2022-11-16T16:06:49.700Z,5.10
2022-11-16T16:09:39.367Z,5.00
2022-11-16T16:12:23.468Z,5.00
2022-11-16T16:14:52.228Z,4.90
2022-11-16T16:17:28.171Z,4.90
2022-11-16T16:20:04.481Z,4.90
2022-11-16T16:22:36.227Z,4.90
2022-11-16T16:25:05.611Z,4.90
2022-11-16T16:27:39.416Z,4.80
2022-11-16T16:30:07.358Z,4.80
2022-11-16T16:32:37.106Z,4.80
2022-11-16T16:35:06.522Z,4.80
2022-11-16T16:37:36.636Z,4.80
2022-11-16T16:40:04.060Z,4.90
2022-11-16T16:42:30.882Z,4.80
2022-11-16T16:44:59.899Z,4.90
2022-11-16T16:47:26.748Z,4.90
2022-11-16T16:49:53.953Z,4.80
2022-11-16T16:52:21.121Z,4.90
2022-11-16T16:54:47.954Z,4.80
2022-11-16T16:57:18.285Z,4.90
2022-11-16T16:59:45.824Z,4.80
2022-11-16T17:02:14.793Z,4.80
2022-11-16T17:04:43.934Z,4.80
2022-11-16T17:07:10.911Z,4.80
2022-11-16T17:09:37.870Z,4.70
2022-11-16T17:12:05.070Z,4.70
2022-11-16T17:14:31.890Z,4.70
2022-11-16T17:17:01.077Z,4.70
2022-11-16T17:19:29.093Z,4.70
2022-11-16T17:21:56.294Z,4.70
2022-11-16T17:24:23.169Z,4.70
2022-11-16T17:26:50.625Z,4.70
2022-11-16T17:29:17.549Z,4.70
2022-11-16T17:31:47.281Z,4.70
2022-11-16T17:34:14.648Z,4.70
2022-11-16T17:36:42.532Z,4.70
2022-11-16T17:39:09.516Z,4.70
2022-11-16T17:41:36.895Z,4.70
2022-11-16T17:44:04.512Z,4.70
2022-11-16T17:46:31.376Z,4.70
2022-11-16T17:48:58.396Z,4.70
2022-11-16T17:51:26.837Z,4.70
2022-11-16T17:53:53.792Z,4.70
2022-11-16T17:56:22.889Z,4.70
2022-11-16T17:58:54.980Z,4.70
2022-11-16T18:01:22.904Z,4.70
2022-11-16T18:03:50.048Z,4.70
2022-11-16T18:06:22.007Z,4.70
2022-11-16T18:08:49.486Z,4.70
2022-11-16T18:11:17.754Z,4.70
2022-11-16T18:13:45.661Z,4.70
2022-11-16T18:16:18.469Z,4.70
2022-11-16T18:18:46.402Z,4.70
2022-11-16T18:21:20.470Z,4.70
2022-11-16T18:23:48.183Z,4.70
2022-11-16T18:26:18.716Z,4.60
2022-11-16T18:28:45.830Z,4.60
2022-11-16T18:31:15.493Z,4.50
2022-11-16T18:33:43.299Z,4.50
2022-11-16T18:36:11.209Z,4.50
2022-11-16T18:38:39.156Z,4.50
2022-11-16T18:41:19.764Z,4.50
2022-11-16T18:43:55.404Z,4.50
2022-11-16T18:46:25.680Z,4.50
2022-11-16T18:48:52.634Z,4.60
2022-11-16T18:51:21.005Z,4.50
2022-11-16T18:53:48.138Z,4.50
2022-11-16T18:56:15.881Z,4.50
2022-11-16T18:58:50.313Z,4.60
2022-11-16T19:01:21.134Z,4.60
2022-11-16T19:03:48.271Z,4.60
2022-11-16T19:06:17.534Z,4.60
2022-11-16T19:08:47.773Z,4.60
2022-11-16T19:11:18.936Z,4.60
2022-11-16T19:13:45.874Z,4.60
2022-11-16T19:16:13.844Z,4.60
2022-11-16T19:18:41.004Z,4.60
2022-11-16T19:21:13.586Z,4.60
2022-11-16T19:23:43.407Z,4.60
2022-11-16T19:26:12.822Z,4.50
2022-11-16T19:28:42.084Z,4.60
2022-11-16T19:31:14.927Z,4.60
2022-11-16T19:33:42.677Z,4.60
2022-11-16T19:36:10.830Z,4.60
2022-11-16T19:38:38.032Z,4.60
2022-11-16T19:41:06.139Z,4.60
2022-11-16T19:43:33.846Z,4.60
2022-11-16T19:46:09.086Z,4.60
2022-11-16T19:48:36.325Z,4.70
2022-11-16T19:51:15.554Z,4.70
2022-11-16T19:53:42.476Z,4.70
2022-11-16T19:56:11.970Z,4.70
2022-11-16T19:58:38.909Z,4.70
2022-11-16T20:01:27.752Z,4.70
2022-11-16T20:03:57.280Z,4.70
2022-11-16T20:06:26.870Z,4.70
2022-11-16T20:08:56.004Z,4.70
2022-11-16T20:11:25.139Z,4.70
2022-11-16T20:13:53.716Z,4.70
2022-11-16T20:16:23.633Z,4.70
2022-11-16T20:18:51.481Z,4.70
2022-11-16T20:21:21.087Z,4.70
2022-11-16T20:23:47.986Z,4.70
2022-11-16T20:26:15.308Z,4.70
2022-11-16T20:28:43.956Z,4.70
2022-11-16T20:31:16.758Z,4.70
2022-11-16T20:33:54.178Z,4.70
2022-11-16T20:36:23.156Z,4.70
2022-11-16T20:38:50.910Z,4.70
2022-11-16T20:41:20.539Z,4.70
2022-11-16T20:43:51.227Z,4.70
2022-11-16T20:46:19.473Z,4.70
2022-11-16T20:48:46.412Z,4.70
2022-11-16T20:51:16.898Z,4.70
2022-11-16T20:53:44.979Z,4.70
2022-11-16T20:56:12.768Z,4.70
2022-11-16T20:58:40.192Z,4.70
2022-11-16T21:01:19.056Z,4.70
2022-11-16T21:03:46.399Z,4.60
2022-11-16T21:06:14.708Z,4.60
2022-11-16T21:08:42.303Z,4.60
2022-11-16T21:11:17.717Z,4.60
2022-11-16T21:14:07.118Z,4.60
2022-11-16T21:16:34.819Z,4.60
2022-11-16T21:19:01.930Z,4.50
2022-11-16T21:21:29.448Z,4.50
2022-11-16T21:23:56.456Z,4.50
2022-11-16T21:26:26.401Z,4.50
2022-11-16T21:28:53.860Z,4.40
2022-11-16T21:31:41.732Z,4.40
2022-11-16T21:34:08.756Z,4.40
2022-11-16T21:36:36.233Z,4.40
2022-11-16T21:39:03.386Z,4.40
2022-11-16T21:41:30.534Z,4.30
2022-11-16T21:43:57.428Z,4.30
2022-11-16T21:46:26.248Z,4.20
2022-11-16T21:48:55.427Z,4.20
2022-11-16T21:51:24.898Z,4.10
2022-11-16T21:53:52.071Z,4.10
2022-11-16T21:56:20.555Z,4.10
2022-11-16T21:58:49.820Z,4.00
2022-11-16T22:01:17.021Z,4.00
2022-11-16T22:03:44.886Z,3.90
2022-11-16T22:06:33.617Z,3.90
2022-11-16T22:09:00.938Z,3.80
2022-11-16T22:11:28.102Z,3.80
2022-11-16T22:13:55.141Z,3.70
2022-11-16T22:16:23.599Z,3.60
2022-11-16T22:18:51.099Z,3.60
2022-11-16T22:21:18.151Z,3.50
2022-11-16T22:23:45.132Z,3.40
2022-11-16T22:26:13.722Z,3.40
2022-11-16T22:28:41.032Z,3.30
2022-11-16T22:31:12.599Z,3.30
2022-11-16T22:33:40.081Z,3.30
2022-11-16T22:36:10.594Z,3.20
2022-11-16T22:38:37.789Z,3.20
2022-11-16T22:41:05.221Z,3.10
2022-11-16T22:43:32.839Z,3.10
2022-11-16T22:46:02.010Z,3.10
2022-11-16T22:48:37.286Z,3.10
2022-11-16T22:51:19.163Z,3.00
2022-11-16T22:53:46.395Z,3.00
2022-11-16T22:56:13.345Z,3.00
2022-11-16T22:58:40.397Z,3.00
2022-11-16T23:01:08.590Z,2.90
2022-11-16T23:03:36.637Z,2.90
2022-11-16T23:06:04.797Z,2.90
2022-11-16T23:08:32.403Z,2.90
2022-11-16T23:11:23.887Z,2.80
2022-11-16T23:14:10.706Z,2.80
2022-11-16T23:16:37.979Z,2.80
2022-11-16T23:19:28.425Z,2.80
2022-11-16T23:22:15.068Z,2.90
2022-11-16T23:25:01.211Z,2.90
2022-11-16T23:27:39.315Z,2.80
2022-11-16T23:30:12.396Z,2.80
2022-11-16T23:32:39.543Z,2.80
2022-11-16T23:35:06.727Z,2.80
2022-11-16T23:37:33.672Z,2.80
2022-11-16T23:40:00.540Z,2.80
2022-11-16T23:42:46.070Z,2.70
2022-11-16T23:45:13.038Z,2.70
2022-11-16T23:47:39.883Z,2.70
2022-11-16T23:50:06.971Z,2.70
2022-11-16T23:52:33.787Z,2.70
2022-11-16T23:55:00.596Z,2.60
2022-11-16T23:57:27.519Z,2.60
2022-11-16T23:59:54.339Z,2.60
